Time;durP1;ratioP1;P1;durP2;ratioP2;P2;SDS_P1;SDS_P2;PMS_P1;PMS_P2;Temp;Humidity;BMP_temperature;BMP_pressure;BME280_temperature;BME280_humidity;BME280_pressure;Samples;Min_cycle;Max_cycle;Signal;HPM_P1;HPM_P2
2024/02/07 06:13:27;;;;;;;;;;;;;;;5.22;100.00;98899.84;4878830;29;19939;-81
2024/02/07 06:15:52;;;;;;;;;;;;;;;5.21;100.00;98887.63;4887795;29;19927;-81
2024/02/07 06:18:17;;;;;;;;;;;;;;;5.16;100.00;98891.34;4888413;29;20371;-82
2024/02/07 06:20:43;;;;;;;;;;;;;;;5.13;100.00;98894.91;4888245;29;20276;-82
2024/02/07 06:23:08;;;;;;;;;;;;;;;5.12;100.00;98887.94;4887771;29;19919;-82
2024/02/07 06:25:33;;;;;;;;;;;;;;;5.16;100.00;98889.56;4886913;29;19924;-81
2024/02/07 06:27:59;;;;;;;;;;;;;;;5.13;100.00;98883.56;4887563;29;19916;-82
2024/02/07 06:30:24;;;;;;;;;;;;;;;5.16;100.00;98884.31;4886747;29;19930;-82
2024/02/07 06:32:49;;;;;;;;;;;;;;;5.17;100.00;98886.03;4887620;29;20344;-84
2024/02/07 06:35:14;;;;;;;;;;;;;;;5.15;100.00;98885.22;4887703;29;19962;-82
2024/02/07 06:37:42;;;;;;;;;;;;;;;5.20;100.00;98875.44;4888491;29;19919;-82
2024/02/07 06:40:07;;;;;;;;;;;;;;;5.17;100.00;98893.91;4888548;29;19930;-84
2024/02/07 06:42:32;;;;;;;;;;;;;;;5.18;100.00;98892.13;4869672;29;19923;-82
2024/02/07 06:44:58;;;;;;;;;;;;;;;5.21;100.00;98890.25;4887699;29;20290;-83
2024/02/07 06:47:23;;;;;;;;;;;;;;;5.24;100.00;98882.25;4887917;29;20357;-82
2024/02/07 06:49:48;;;;;;;;;;;;;;;5.25;100.00;98880.53;4888267;29;19919;-82
2024/02/07 06:52:13;;;;;;;;;;;;;;;5.22;100.00;98883.25;4887637;29;19943;-82
2024/02/07 06:54:39;;;;;;;;;;;;;;;5.33;100.00;98874.97;4887777;29;19919;-83
2024/02/07 06:57:04;;;;;;;;;;;;;;;5.37;100.00;98882.69;4886471;29;19924;-82
2024/02/07 06:59:29;;;;;;;;;;;;;;;5.29;100.00;98871.59;4887571;29;19968;-82
2024/02/07 07:01:55;;;;;;;;;;;;;;;5.30;100.00;98867.19;4887465;29;19920;-82
2024/02/07 07:04:20;;;;;;;;;;;;;;;5.27;100.00;98873.44;4887851;29;20018;-81
2024/02/07 07:06:45;;;;;;;;;;;;;;;5.22;100.00;98876.22;4887747;29;19924;-82
2024/02/07 07:09:11;;;;;;;;;;;;;;;5.27;100.00;98866.41;4887428;29;20344;-81
2024/02/07 07:11:36;;;;;;;;;;;;;;;5.29;100.00;98863.72;4886125;29;19927;-82
2024/02/07 07:14:01;;;;;;;;;;;;;;;5.31;100.00;98866.28;4894299;29;19930;-82
2024/02/07 07:16:26;;;;;;;;;;;;;;;5.34;100.00;98868.81;4887255;29;19934;-82
2024/02/07 07:18:53;;;;;;;;;;;;;;;5.29;100.00;98876.84;4887691;29;19926;-83
2024/02/07 07:21:18;;;;;;;;;;;;;;;5.27;100.00;98876.91;4887752;29;19931;-83
2024/02/07 07:23:44;;;;;;;;;;;;;;;5.31;100.00;98867.13;4874229;29;20295;-83
2024/02/07 07:26:09;;;;;;;;;;;;;;;5.32;100.00;98868.88;4889783;29;19927;-82
2024/02/07 07:28:34;;;;;;;;;;;;;;;5.31;100.00;98867.13;4891559;29;20481;-82
2024/02/07 07:30:59;;;;;;;;;;;;;;;5.28;100.00;98870.75;4890965;29;19930;-83
2024/02/07 07:33:25;;;;;;;;;;;;;;;5.31;100.00;98866.28;4890809;29;20035;-82
2024/02/07 07:35:50;;;;;;;;;;;;;;;5.35;100.00;98863.50;4890849;29;19927;-82
2024/02/07 07:38:15;;;;;;;;;;;;;;;5.31;100.00;98861.03;4891204;29;20341;-82
2024/02/07 07:40:41;;;;;;;;;;;;;;;5.34;100.00;98867.03;4889593;29;20216;-82
2024/02/07 07:43:07;;;;;;;;;;;;;;;5.35;100.00;98867.91;4890552;29;19930;-82
2024/02/07 07:45:32;;;;;;;;;;;;;;;5.37;100.00;98868.69;4890768;29;20014;-82
2024/02/07 07:47:57;;;;;;;;;;;;;;;5.42;100.00;98878.13;4886572;29;19971;-82
2024/02/07 07:50:22;;;;;;;;;;;;;;;5.36;100.00;98869.59;4891545;29;19923;-82
2024/02/07 08:59:27;;;;;;;;;;;;;;;5.39;100.00;98837.97;4927240;29;19974;-86
2024/02/07 09:01:53;;;;;;;;;;;;;;;5.35;100.00;98837.22;4927205;29;19927;-82
2024/02/07 09:04:18;;;;;;;;;;;;;;;5.33;100.00;98825.06;4927115;29;19922;-82
2024/02/07 09:06:45;;;;;;;;;;;;;;;5.39;100.00;98832.72;4927120;29;19974;-83
2024/02/07 09:09:11;;;;;;;;;;;;;;;5.38;100.00;98825.75;4925900;29;19923;-82
2024/02/07 09:11:36;;;;;;;;;;;;;;;5.44;100.00;98831.66;4925461;29;19974;-82
2024/02/07 09:14:01;;;;;;;;;;;;;;;5.38;100.00;98821.34;4927197;29;19919;-81
2024/02/07 09:16:26;;;;;;;;;;;;;;;5.48;100.00;98821.03;4926731;29;19923;-82
2024/02/07 09:18:52;;;;;;;;;;;;;;;5.36;100.00;98832.81;4926827;29;20022;-82
2024/02/07 09:21:18;;;;;;;;;;;;;;;5.36;100.00;98823.19;4926378;29;20014;-82
2024/02/07 09:23:43;;;;;;;;;;;;;;;5.36;100.00;98822.31;4927034;29;20333;-84
2024/02/07 09:26:09;;;;;;;;;;;;;;;5.30;100.00;98818.16;4907973;29;19920;-77
2024/02/07 09:28:34;;;;;;;;;;;;;;;5.33;100.00;98817.16;4926240;29;19930;-85
2024/02/07 09:30:59;;;;;;;;;;;;;;;5.49;100.00;98810.47;4926323;29;19919;-81
2024/02/07 09:33:24;;;;;;;;;;;;;;;5.43;100.00;98810.69;4926121;29;19950;-81
2024/02/07 09:35:49;;;;;;;;;;;;;;;5.45;100.00;98808.84;4926407;29;19927;-86
2024/02/07 09:38:15;;;;;;;;;;;;;;;5.45;100.00;98811.47;4926691;29;20523;-83
2024/02/07 09:40:40;;;;;;;;;;;;;;;5.42;100.00;98819.47;4924990;29;19958;-86
2024/02/07 09:43:05;;;;;;;;;;;;;;;5.40;100.00;98816.91;4926136;29;19922;-83
2024/02/07 09:45:32;;;;;;;;;;;;;;;5.36;100.00;98803.94;4925770;29;20061;-83
2024/02/07 09:48:27;;;;;;;;;;;;;;;5.37;100.00;98803.03;4926654;29;20406;-83
2024/02/07 09:50:53;;;;;;;;;;;;;;;5.33;100.00;98807.53;4924464;29;19926;-83
2024/02/07 09:53:19;;;;;;;;;;;;;;;5.35;100.00;98794.34;4925995;29;19923;-81
2024/02/07 09:55:46;;;;;;;;;;;;;;;5.32;100.00;98799.72;4923843;29;20294;-81
2024/02/07 09:58:11;;;;;;;;;;;;;;;5.36;100.00;98793.41;4925779;29;20276;-82
2024/02/07 10:00:37;;;;;;;;;;;;;;;5.38;100.00;98802.13;4925838;29;19929;-82
2024/02/07 10:03:06;;;;;;;;;;;;;;;5.36;100.00;98788.16;4926360;29;20010;-84
2024/02/07 10:05:31;;;;;;;;;;;;;;;5.39;100.00;98790.69;4926030;29;20029;-81
2024/02/07 10:07:56;;;;;;;;;;;;;;;5.38;100.00;98791.63;4925700;29;20399;-80
2024/02/07 10:10:21;;;;;;;;;;;;;;;5.37;100.00;98785.47;4925088;29;19918;-81
2024/02/07 10:12:47;;;;;;;;;;;;;;;5.44;100.00;98784.34;4926009;29;19986;-81
2024/02/07 10:15:12;;;;;;;;;;;;;;;5.41;100.00;98788.88;4925798;29;20023;-81
2024/02/07 10:17:38;;;;;;;;;;;;;;;5.46;100.00;98789.53;4925354;29;19978;-84
2024/02/07 10:20:09;;;;;;;;;;;;;;;5.40;100.00;98782.75;4925791;29;19918;-82
2024/02/07 10:22:38;;;;;;;;;;;;;;;5.42;100.00;98769.53;4925599;29;19974;-81
2024/02/07 10:25:05;;;;;;;;;;;;;;;5.41;100.00;98773.97;4925514;29;19919;-81
2024/02/07 10:27:30;;;;;;;;;;;;;;;5.49;100.00;98786.81;4924235;29;19930;-80
2024/02/07 10:30:01;;;;;;;;;;;;;;;5.42;100.00;98773.03;4925948;29;19919;-80
2024/02/07 10:32:27;;;;;;;;;;;;;;;5.39;100.00;98764.41;4925130;29;19923;-82
2024/02/07 10:34:52;;;;;;;;;;;;;;;5.41;100.00;98759.97;4925443;29;19929;-81
2024/02/07 10:37:18;;;;;;;;;;;;;;;5.48;100.00;98766.69;4925876;29;20042;-81
2024/02/07 10:39:43;;;;;;;;;;;;;;;5.48;100.00;98764.06;4925352;29;20283;-83
2024/02/07 10:42:09;;;;;;;;;;;;;;;5.60;100.00;98750.47;4924030;29;19929;-81
2024/02/07 10:44:34;;;;;;;;;;;;;;;5.53;100.00;98746.34;4925233;29;19942;-83
2024/02/07 10:47:00;;;;;;;;;;;;;;;5.55;100.00;98749.78;4925603;29;19922;-83
2024/02/07 10:49:25;;;;;;;;;;;;;;;5.58;100.00;98747.00;4925336;29;19974;-79
2024/02/07 10:51:51;;;;;;;;;;;;;;;5.63;100.00;98725.81;4925262;29;19927;-79
2024/02/07 10:54:16;;;;;;;;;;;;;;;5.63;100.00;98742.47;4925192;29;19918;-82
2024/02/07 10:56:41;;;;;;;;;;;;;;;5.59;100.00;98740.84;4923340;29;19922;-82
2024/02/07 10:59:09;;;;;;;;;;;;;;;5.55;100.00;98734.03;4925087;29;19923;-81
2024/02/07 11:01:34;;;;;;;;;;;;;;;5.52;100.00;98728.88;4925367;29;20353;-83
2024/02/07 11:04:00;;;;;;;;;;;;;;;5.56;100.00;98735.72;4915469;29;20294;-81
2024/02/07 11:06:26;;;;;;;;;;;;;;;5.52;100.00;98738.50;4925092;29;20375;-81
2024/02/07 11:09:00;;;;;;;;;;;;;;;5.45;100.00;98728.25;4925482;29;19930;-81
2024/02/07 11:11:27;;;;;;;;;;;;;;;5.58;100.00;98728.63;4924037;29;20429;-82
2024/02/07 11:13:53;;;;;;;;;;;;;;;5.51;100.00;98731.56;4925393;29;19966;-83
2024/02/07 11:16:19;;;;;;;;;;;;;;;5.48;100.00;98727.28;4924832;29;20017;-81
2024/02/07 11:18:44;;;;;;;;;;;;;;;5.55;100.00;98726.13;4908043;29;20302;-79
2024/02/07 11:21:12;;;;;;;;;;;;;;;5.54;100.00;98716.53;4924997;29;19919;-84
2024/02/07 11:23:38;;;;;;;;;;;;;;;5.53;100.00;98712.19;4924953;29;19967;-84
2024/02/07 11:26:04;;;;;;;;;;;;;;;5.57;100.00;98711.16;4906398;29;19919;-83
2024/02/07 11:28:29;;;;;;;;;;;;;;;5.53;100.00;98714.81;4925105;29;19925;-83
2024/02/07 11:30:58;;;;;;;;;;;;;;;5.59;100.00;98701.44;4925254;29;19950;-81
2024/02/07 11:33:23;;;;;;;;;;;;;;;5.59;100.00;98688.28;4924311;29;19976;-82
2024/02/07 11:35:49;;;;;;;;;;;;;;;5.58;100.00;98694.44;4924844;29;19966;-80
2024/02/07 11:38:17;;;;;;;;;;;;;;;5.60;100.00;98692.63;4925192;29;19922;-84
2024/02/07 11:40:44;;;;;;;;;;;;;;;5.58;100.00;98704.97;4923340;29;20362;-80
2024/02/07 11:43:17;;;;;;;;;;;;;;;5.61;100.00;98699.59;4924908;29;20294;-81
2024/02/07 11:45:43;;;;;;;;;;;;;;;5.64;100.00;98696.00;4923775;29;19954;-84
2024/02/07 11:48:18;;;;;;;;;;;;;;;5.55;100.00;98698.97;4915258;29;20021;-83
2024/02/07 11:50:45;;;;;;;;;;;;;;;5.63;100.00;98689.00;4923505;29;19925;-84
2024/02/07 11:53:20;;;;;;;;;;;;;;;5.61;100.00;98691.72;4924714;29;19923;-81
2024/02/07 11:55:46;;;;;;;;;;;;;;;5.58;100.00;98690.97;4922555;29;20032;-83
2024/02/07 11:58:14;;;;;;;;;;;;;;;5.55;100.00;98691.97;4924933;29;20378;-83
2024/02/07 12:00:41;;;;;;;;;;;;;;;5.57;100.00;98681.41;4907134;29;19919;-83
2024/02/07 12:03:11;;;;;;;;;;;;;;;5.52;100.00;98673.69;4915234;29;19973;-82
2024/02/07 12:05:36;;;;;;;;;;;;;;;5.45;100.00;98699.34;4924080;29;19950;-83
2024/02/07 12:08:02;;;;;;;;;;;;;;;5.53;100.00;98671.91;4908845;29;19919;-84
2024/02/07 12:10:27;;;;;;;;;;;;;;;5.57;100.00;98677.00;4925581;29;20264;-84
2024/02/07 12:12:54;;;;;;;;;;;;;;;5.51;100.00;98676.38;4928255;29;19977;-83
2024/02/07 12:15:19;;;;;;;;;;;;;;;5.57;100.00;98663.84;4927643;29;19923;-83
2024/02/07 12:17:45;;;;;;;;;;;;;;;5.63;100.00;98671.50;4909394;29;19934;-86
2024/02/07 12:20:12;;;;;;;;;;;;;;;5.57;100.00;98671.75;4927880;29;19918;-83
2024/02/07 12:22:38;;;;;;;;;;;;;;;5.53;100.00;98675.41;4928044;29;19930;-87
2024/02/07 12:25:05;;;;;;;;;;;;;;;5.58;100.00;98668.16;4910293;29;19919;-83
2024/02/07 12:27:30;;;;;;;;;;;;;;;5.63;100.00;98663.63;4926478;29;19925;-83
2024/02/07 12:29:56;;;;;;;;;;;;;;;5.71;100.00;98668.56;4926661;29;20006;-84
2024/02/07 12:32:22;;;;;;;;;;;;;;;5.63;100.00;98666.25;4910267;29;19946;-84
2024/02/07 12:34:47;;;;;;;;;;;;;;;5.64;100.00;98662.69;4927712;29;19926;-83
2024/02/07 12:37:14;;;;;;;;;;;;;;;5.64;100.00;98661.84;4927419;29;20279;-85
2024/02/07 12:39:39;;;;;;;;;;;;;;;5.69;100.00;98669.53;4927021;29;19924;-84
2024/02/07 12:42:05;;;;;;;;;;;;;;;5.64;100.00;98660.03;4926433;29;19925;-85
2024/02/07 12:44:30;;;;;;;;;;;;;;;5.54;100.00;98663.97;4927445;29;19918;-84
2024/02/07 12:46:56;;;;;;;;;;;;;;;5.64;100.00;98662.69;4927035;29;19930;-85
2024/02/07 12:49:21;;;;;;;;;;;;;;;5.57;100.00;98666.47;4909928;29;19958;-83
2024/02/07 12:51:46;;;;;;;;;;;;;;;5.54;100.00;98660.50;4927249;29;19965;-83
2024/02/07 12:54:12;;;;;;;;;;;;;;;5.61;100.00;98647.03;4927267;29;20477;-85
2024/02/07 12:56:37;;;;;;;;;;;;;;;5.48;100.00;98648.44;4915210;29;19919;-84
2024/02/07 12:59:03;;;;;;;;;;;;;;;5.58;100.00;98656.81;4926725;29;19927;-85
2024/02/07 13:01:28;;;;;;;;;;;;;;;5.51;100.00;98650.97;4927411;29;19922;-81
2024/02/07 13:03:53;;;;;;;;;;;;;;;5.54;100.00;98640.31;4926919;29;20422;-85
2024/02/07 13:06:20;;;;;;;;;;;;;;;5.57;100.00;98640.22;4909417;29;19919;-88
2024/02/07 13:08:46;;;;;;;;;;;;;;;5.56;100.00;98643.75;4917183;29;19915;-83
2024/02/07 13:11:12;;;;;;;;;;;;;;;5.56;100.00;98635.84;4925617;29;20021;-80
2024/02/07 13:13:37;;;;;;;;;;;;;;;5.50;100.00;98641.34;4927297;29;20454;-84
2024/02/07 13:16:02;;;;;;;;;;;;;;;5.55;100.00;98634.16;4926860;29;19923;-84
2024/02/07 13:18:28;;;;;;;;;;;;;;;5.54;100.00;98634.22;4909084;29;20327;-83
2024/02/07 13:20:53;;;;;;;;;;;;;;;5.54;100.00;98631.59;4925643;29;19923;-84
2024/02/07 13:23:21;;;;;;;;;;;;;;;5.53;100.00;98630.72;4926730;29;19919;-84
2024/02/07 13:25:47;;;;;;;;;;;;;;;5.55;100.00;98626.28;4923967;29;19923;-84
2024/02/07 13:28:12;;;;;;;;;;;;;;;5.58;100.00;98623.50;4926236;29;20021;-84
2024/02/07 13:30:38;;;;;;;;;;;;;;;5.54;100.00;98624.56;4926318;29;19950;-84
2024/02/07 13:33:03;;;;;;;;;;;;;;;5.61;100.00;98626.00;4926656;29;19929;-82
2024/02/07 13:35:29;;;;;;;;;;;;;;;5.62;100.00;98630.34;4926224;29;19962;-83
2024/02/07 13:37:58;;;;;;;;;;;;;;;5.64;100.00;98622.41;4926370;29;19919;-84
2024/02/07 13:40:25;;;;;;;;;;;;;;;5.61;100.00;98610.25;4925282;29;19975;-84
2024/02/07 13:42:50;;;;;;;;;;;;;;;5.63;100.00;98616.31;4925991;29;19919;-86
2024/02/07 13:45:18;;;;;;;;;;;;;;;5.63;100.00;98618.06;4926596;29;19935;-85
2024/02/07 13:47:45;;;;;;;;;;;;;;;5.57;100.00;98616.56;4925643;29;19956;-86
2024/02/07 13:50:10;;;;;;;;;;;;;;;5.67;100.00;98606.50;4926388;29;19919;-83
2024/02/07 13:52:36;;;;;;;;;;;;;;;5.60;100.00;98610.31;4926260;29;19926;-83
2024/02/07 13:55:02;;;;;;;;;;;;;;;5.56;100.00;98606.94;4925620;29;19923;-84
2024/02/07 13:57:30;;;;;;;;;;;;;;;5.58;100.00;98597.22;4924714;29;19961;-86
2024/02/07 13:59:55;;;;;;;;;;;;;;;5.59;100.00;98596.31;4908506;29;20353;-83
2024/02/07 14:02:20;;;;;;;;;;;;;;;5.57;100.00;98590.28;4925994;29;19922;-84
2024/02/07 14:04:45;;;;;;;;;;;;;;;5.61;100.00;98591.00;4925765;29;19924;-83
2024/02/07 14:07:11;;;;;;;;;;;;;;;5.64;100.00;98585.63;4925997;29;19919;-84
2024/02/07 14:09:36;;;;;;;;;;;;;;;5.61;100.00;98586.59;4926433;29;20286;-83
2024/02/07 14:12:01;;;;;;;;;;;;;;;5.62;100.00;98590.09;4907191;29;19963;-84
2024/02/07 14:14:27;;;;;;;;;;;;;;;5.66;100.00;98581.13;4925718;29;19938;-84
2024/02/07 14:16:52;;;;;;;;;;;;;;;5.54;100.00;98574.63;4925704;29;20439;-86
2024/02/07 14:19:18;;;;;;;;;;;;;;;5.62;100.00;98575.16;4926102;29;19923;-85
2024/02/07 14:21:43;;;;;;;;;;;;;;;5.62;100.00;98567.28;4926002;29;19919;-87
2024/02/07 14:24:09;;;;;;;;;;;;;;;5.61;100.00;98570.81;4925400;29;20370;-84
2024/02/07 14:26:35;;;;;;;;;;;;;;;5.64;100.00;98573.31;4924076;29;19919;-84
2024/02/07 14:29:01;;;;;;;;;;;;;;;5.60;100.00;98574.38;4915890;29;20393;-84
2024/02/07 14:31:27;;;;;;;;;;;;;;;5.54;100.00;98563.28;4925333;29;19927;-85
2024/02/07 14:33:52;;;;;;;;;;;;;;;5.63;100.00;98563.75;4925541;29;20371;-85
2024/02/07 14:36:19;;;;;;;;;;;;;;;5.59;100.00;98562.16;4925581;29;19930;-82
2024/02/07 14:38:44;;;;;;;;;;;;;;;5.58;100.00;98556.97;4925830;29;19919;-83
2024/02/07 14:41:09;;;;;;;;;;;;;;;5.58;100.00;98556.97;4924287;29;19923;-85
2024/02/07 14:43:34;;;;;;;;;;;;;;;5.60;100.00;98547.22;4925543;29;19919;-86
2024/02/07 14:46:00;;;;;;;;;;;;;;;5.58;100.00;98539.41;4925051;29;19923;-84
2024/02/07 14:48:25;;;;;;;;;;;;;;;5.61;100.00;98544.53;4908512;29;19942;-86
2024/02/07 14:50:50;;;;;;;;;;;;;;;5.60;100.00;98548.09;4925447;29;19923;-84
2024/02/07 14:53:16;;;;;;;;;;;;;;;5.54;100.00;98548.38;4924964;29;19919;-86
2024/02/07 14:55:41;;;;;;;;;;;;;;;5.61;100.00;98555.06;4923860;29;20417;-84
2024/02/07 14:58:07;;;;;;;;;;;;;;;5.63;100.00;98541.84;4923998;29;19923;-84
2024/02/07 15:00:32;;;;;;;;;;;;;;;5.56;100.00;98522.03;4925389;29;20363;-84
2024/02/07 15:02:58;;;;;;;;;;;;;;;5.69;100.00;98530.22;4925605;29;20349;-85
2024/02/07 15:05:23;;;;;;;;;;;;;;;5.55;100.00;98530.81;4925096;29;19927;-84
2024/02/07 15:07:49;;;;;;;;;;;;;;;5.55;100.00;98521.19;4924715;29;19923;-85
2024/02/07 15:10:15;;;;;;;;;;;;;;;5.53;100.00;98525.63;4925004;29;19915;-88
2024/02/07 15:12:40;;;;;;;;;;;;;;;5.58;100.00;98523.66;4924130;29;19969;-87
2024/02/07 15:15:06;;;;;;;;;;;;;;;5.54;100.00;98516.81;4925231;29;20004;-83
2024/02/07 15:17:31;;;;;;;;;;;;;;;5.63;100.00;98518.19;4924933;29;19919;-87
2024/02/07 15:19:56;;;;;;;;;;;;;;;5.54;100.00;98519.47;4925465;29;19919;-84
2024/02/07 15:22:22;;;;;;;;;;;;;;;5.54;100.00;98510.72;4925072;29;19918;-86
2024/02/07 15:24:47;;;;;;;;;;;;;;;5.62;100.00;98503.38;4907683;29;19919;-86
2024/02/07 15:27:12;;;;;;;;;;;;;;;5.60;100.00;98513.94;4906761;29;19929;-86
2024/02/07 15:29:37;;;;;;;;;;;;;;;5.59;100.00;98506.97;4924878;29;19978;-85
2024/02/07 15:32:03;;;;;;;;;;;;;;;5.64;100.00;98501.53;4924655;29;20014;-82
2024/02/07 15:34:28;;;;;;;;;;;;;;;5.62;100.00;98503.38;4925212;29;19930;-82
2024/02/07 15:36:53;;;;;;;;;;;;;;;5.68;100.00;98505.72;4924811;29;20437;-83
2024/02/07 15:39:18;;;;;;;;;;;;;;;5.61;100.00;98491.97;4924707;29;20426;-83
2024/02/07 15:41:43;;;;;;;;;;;;;;;5.59;100.00;98485.94;4923495;29;19919;-84
2024/02/07 15:44:09;;;;;;;;;;;;;;;5.59;100.00;98488.56;4928101;29;19962;-83
2024/02/07 15:46:34;;;;;;;;;;;;;;;5.58;100.00;98496.53;4911406;29;19919;-84
2024/02/07 15:48:59;;;;;;;;;;;;;;;5.59;100.00;98478.06;4928071;29;19947;-85
2024/02/07 15:51:26;;;;;;;;;;;;;;;5.56;100.00;98483.44;4928075;29;19929;-84
2024/02/07 15:53:52;;;;;;;;;;;;;;;5.67;100.00;98472.47;4927332;29;19950;-86
2024/02/07 15:56:17;;;;;;;;;;;;;;;5.61;100.00;98476.22;4927060;29;20021;-85
2024/02/07 15:58:42;;;;;;;;;;;;;;;5.56;100.00;98477.34;4928697;29;19927;-84
2024/02/07 16:01:07;;;;;;;;;;;;;;;5.54;100.00;98468.69;4928238;29;19927;-85
2024/02/07 16:03:32;;;;;;;;;;;;;;;5.60;100.00;98474.53;4927828;29;19930;-84
2024/02/07 16:05:59;;;;;;;;;;;;;;;5.57;100.00;98458.88;4928147;29;19966;-83
2024/02/07 16:08:24;;;;;;;;;;;;;;;5.60;100.00;98465.75;4928254;29;20326;-87
2024/02/07 16:10:49;;;;;;;;;;;;;;;5.52;100.00;98460.00;4926754;29;19923;-85
2024/02/07 16:13:15;;;;;;;;;;;;;;;5.58;100.00;98460.56;4927751;29;19955;-87
2024/02/07 16:15:41;;;;;;;;;;;;;;;5.52;100.00;98460.88;4928022;29;19925;-87
2024/02/07 16:18:07;;;;;;;;;;;;;;;5.53;100.00;98457.31;4928015;29;19925;-86
2024/02/07 16:20:32;;;;;;;;;;;;;;;5.61;100.00;98449.09;4926748;29;19920;-84
2024/02/07 16:22:57;;;;;;;;;;;;;;;5.53;100.00;98445.94;4927232;29;19922;-82
2024/02/07 16:25:22;;;;;;;;;;;;;;;5.51;100.00;98446.00;4928523;29;19919;-83
2024/02/07 16:27:48;;;;;;;;;;;;;;;5.53;100.00;98446.78;4926455;29;19923;-85
2024/02/07 16:30:14;;;;;;;;;;;;;;;5.54;100.00;98443.25;4910731;29;19967;-85
2024/02/07 16:32:39;;;;;;;;;;;;;;;5.59;100.00;98437.81;4927910;29;19919;-86
2024/02/07 16:35:07;;;;;;;;;;;;;;;5.57;100.00;98435.25;4927347;29;20322;-80
2024/02/07 16:37:32;;;;;;;;;;;;;;;5.51;100.00;98429.41;4927728;29;19930;-84
2024/02/07 16:39:58;;;;;;;;;;;;;;;5.56;100.00;98430.91;4927787;29;19923;-84
2024/02/07 16:42:24;;;;;;;;;;;;;;;5.48;100.00;98425.13;4926240;29;19920;-84
2024/02/07 16:44:49;;;;;;;;;;;;;;;5.56;100.00;98432.69;4927437;29;19923;-83
2024/02/07 16:47:14;;;;;;;;;;;;;;;5.54;100.00;98438.00;4927845;29;19950;-83
2024/02/07 16:49:39;;;;;;;;;;;;;;;5.46;100.00;98424.34;4927608;29;19923;-84
2024/02/07 16:52:05;;;;;;;;;;;;;;;5.53;100.00;98425.78;4926953;29;19926;-83
2024/02/07 16:54:30;;;;;;;;;;;;;;;5.45;100.00;98427.88;4926129;29;19930;-83
2024/02/07 16:56:55;;;;;;;;;;;;;;;5.55;100.00;98428.34;4926429;29;19922;-84
2024/02/07 16:59:21;;;;;;;;;;;;;;;5.49;100.00;98424.22;4927309;29;19927;-83
2024/02/07 17:01:46;;;;;;;;;;;;;;;5.51;100.00;98432.03;4926977;29;19934;-84
2024/02/07 17:04:13;;;;;;;;;;;;;;;5.49;100.00;98424.22;4927070;29;19926;-83
2024/02/07 17:06:38;;;;;;;;;;;;;;;5.45;100.00;98430.50;4927252;29;19923;-83
2024/02/07 17:09:03;;;;;;;;;;;;;;;5.48;100.00;98419.88;4926999;29;20326;-83
2024/02/07 17:11:30;;;;;;;;;;;;;;;5.53;100.00;98419.69;4925651;29;19927;-83
2024/02/07 17:13:55;;;;;;;;;;;;;;;5.43;100.00;98425.31;4927140;29;19958;-84
2024/02/07 17:16:20;;;;;;;;;;;;;;;5.49;100.00;98426.84;4927091;29;19967;-84
2024/02/07 17:18:45;;;;;;;;;;;;;;;5.49;100.00;98432.09;4927069;29;19970;-83
2024/02/07 17:21:11;;;;;;;;;;;;;;;5.55;100.00;98423.94;4926582;29;20367;-83
2024/02/07 17:23:36;;;;;;;;;;;;;;;5.50;100.00;98425.91;4927095;29;19919;-83
2024/02/07 17:26:02;;;;;;;;;;;;;;;5.61;100.00;98428.91;4925481;29;19922;-83
2024/02/07 17:28:27;;;;;;;;;;;;;;;5.60;100.00;98416.72;4926929;29;19923;-86
2024/02/07 17:30:52;;;;;;;;;;;;;;;5.57;100.00;98427.34;4926814;29;20275;-84
2024/02/07 17:33:17;;;;;;;;;;;;;;;5.58;100.00;98429.03;4925612;29;19923;-84
2024/02/07 17:35:43;;;;;;;;;;;;;;;5.56;100.00;98425.63;4926302;29;19977;-84
2024/02/07 17:38:08;;;;;;;;;;;;;;;5.61;100.00;98422.81;4909503;29;19927;-84
2024/02/07 17:40:34;;;;;;;;;;;;;;;5.64;100.00;98427.94;4924567;29;20003;-86
2024/02/07 17:42:59;;;;;;;;;;;;;;;5.64;100.00;98428.78;4926894;29;19919;-84
2024/02/07 17:45:27;;;;;;;;;;;;;;;5.61;100.00;98422.81;4926403;29;19966;-84
2024/02/07 17:47:52;;;;;;;;;;;;;;;5.55;100.00;98421.31;4926291;29;19926;-85
2024/02/07 17:50:22;;;;;;;;;;;;;;;5.55;100.00;98418.69;4926287;29;20290;-84
2024/02/07 17:52:48;;;;;;;;;;;;;;;5.56;100.00;98423.00;4924892;29;20268;-84
2024/02/07 17:55:13;;;;;;;;;;;;;;;5.58;100.00;98417.69;4925950;29;19926;-84
2024/02/07 17:57:38;;;;;;;;;;;;;;;5.59;100.00;98414.16;4925028;29;19996;-84
2024/02/07 18:00:04;;;;;;;;;;;;;;;5.64;100.00;98420.91;4926354;29;20799;-83
2024/02/07 18:02:29;;;;;;;;;;;;;;;5.58;100.00;98423.78;4925772;29;19919;-84
2024/02/07 18:04:55;;;;;;;;;;;;;;;5.58;100.00;98423.78;4926483;29;20331;-84
2024/02/07 18:07:20;;;;;;;;;;;;;;;5.57;100.00;98411.59;4925525;29;19962;-83
2024/02/07 18:09:45;;;;;;;;;;;;;;;5.59;100.00;98417.63;4925867;29;19951;-83
2024/02/07 18:12:10;;;;;;;;;;;;;;;5.58;100.00;98418.53;4925077;29;19919;-84
2024/02/07 18:14:36;;;;;;;;;;;;;;;5.57;100.00;98416.84;4925806;29;20363;-84
2024/02/07 18:17:01;;;;;;;;;;;;;;;5.58;100.00;98415.91;4926102;29;19919;-83
2024/02/07 18:19:26;;;;;;;;;;;;;;;5.56;100.00;98415.13;4924837;29;19976;-83
2024/02/07 18:21:52;;;;;;;;;;;;;;;5.55;100.00;98410.81;4924446;29;19919;-84
2024/02/07 18:24:18;;;;;;;;;;;;;;;5.55;100.00;98412.56;4924880;29;20347;-84
2024/02/07 18:26:48;;;;;;;;;;;;;;;5.60;100.00;98400.06;4923988;29;19919;-83
2024/02/07 18:29:14;;;;;;;;;;;;;;;5.61;100.00;98410.50;4925301;29;19962;-83
2024/02/07 18:31:39;;;;;;;;;;;;;;;5.56;100.00;98409.88;4924920;29;20327;-82
2024/02/07 18:34:04;;;;;;;;;;;;;;;5.59;100.00;98404.47;4924645;29;19930;-83
2024/02/07 18:36:30;;;;;;;;;;;;;;;5.62;100.00;98404.34;4924366;29;20282;-85
2024/02/07 18:38:56;;;;;;;;;;;;;;;5.58;100.00;98402.78;4907811;29;20271;-82
2024/02/07 18:41:21;;;;;;;;;;;;;;;5.55;100.00;98407.31;4923315;29;19926;-83
2024/02/07 18:43:47;;;;;;;;;;;;;;;5.56;100.00;98404.63;4907783;29;20045;-82
2024/02/07 18:46:12;;;;;;;;;;;;;;;5.57;100.00;98395.81;4924912;29;19919;-83
2024/02/07 18:48:37;;;;;;;;;;;;;;;5.55;100.00;98395.06;4924796;29;19919;-83
2024/02/07 18:51:03;;;;;;;;;;;;;;;5.61;100.00;98392.13;4924376;29;19919;-83
2024/02/07 18:53:28;;;;;;;;;;;;;;;5.59;100.00;98383.47;4924052;29;19939;-84
2024/02/07 18:55:54;;;;;;;;;;;;;;;5.60;100.00;98385.19;4923837;29;19919;-86
2024/02/07 18:58:19;;;;;;;;;;;;;;;5.59;100.00;98383.47;4924434;29;20022;-82
2024/02/07 19:00:44;;;;;;;;;;;;;;;5.54;100.00;98380.19;4923667;29;19920;-83
2024/02/07 19:03:10;;;;;;;;;;;;;;;5.60;100.00;98384.31;4924305;29;20287;-82
2024/02/07 19:05:35;;;;;;;;;;;;;;;5.61;100.00;98380.78;4924122;29;20610;-82
2024/02/07 19:08:01;;;;;;;;;;;;;;;5.60;100.00;98376.41;4924581;29;20430;-82
2024/02/07 19:10:27;;;;;;;;;;;;;;;5.59;100.00;98377.38;4907104;29;19923;-82
2024/02/07 19:12:52;;;;;;;;;;;;;;;5.62;100.00;98377.22;4923480;29;19919;-83
2024/02/07 19:15:17;;;;;;;;;;;;;;;5.64;100.00;98376.22;4923972;29;19962;-85
2024/02/07 19:17:42;;;;;;;;;;;;;;;5.60;100.00;98374.66;4925356;29;19926;-83
2024/02/07 19:20:08;;;;;;;;;;;;;;;5.62;100.00;98367.56;4928397;29;19927;-84
2024/02/07 19:22:33;;;;;;;;;;;;;;;5.65;100.00;98371.84;4928329;29;19938;-84
2024/02/07 19:24:59;;;;;;;;;;;;;;;5.67;100.00;98379.66;4928303;29;19922;-85
2024/02/07 19:27:24;;;;;;;;;;;;;;;5.66;100.00;98380.56;4926795;29;19919;-84
2024/02/07 19:29:49;;;;;;;;;;;;;;;5.62;100.00;98371.97;4928304;29;19930;-85
2024/02/07 19:32:15;;;;;;;;;;;;;;;5.61;100.00;98378.97;4928219;29;19918;-84
2024/02/07 19:34:41;;;;;;;;;;;;;;;5.61;100.00;98381.59;4928087;29;19946;-86
2024/02/07 19:37:06;;;;;;;;;;;;;;;5.60;100.00;98374.66;4918429;29;20375;-83
2024/02/07 19:39:31;;;;;;;;;;;;;;;5.62;100.00;98378.06;4927518;29;19922;-84
2024/02/07 19:41:56;;;;;;;;;;;;;;;5.60;100.00;98366.78;4916871;29;19919;-86
2024/02/07 19:44:22;;;;;;;;;;;;;;;5.64;100.00;98376.22;4927377;29;20440;-85
2024/02/07 19:46:47;;;;;;;;;;;;;;;5.63;100.00;98374.53;4909856;29;19923;-85
2024/02/07 19:49:13;;;;;;;;;;;;;;;5.63;100.00;98371.03;4927150;29;19923;-87
2024/02/07 19:51:39;;;;;;;;;;;;;;;5.61;100.00;98371.09;4926428;29;19927;-85
2024/02/07 19:54:05;;;;;;;;;;;;;;;5.60;100.00;98360.66;4927843;29;19966;-85
2024/02/07 19:56:31;;;;;;;;;;;;;;;5.61;100.00;98371.09;4925120;29;19992;-85
2024/02/07 19:58:57;;;;;;;;;;;;;;;5.63;100.00;98374.53;4927337;29;20439;-86